Time;durP1;ratioP1;P1;durP2;ratioP2;P2;SDS_P1;SDS_P2;PMS_P1;PMS_P2;Temp;Humidity;BMP_temperature;BMP_pressure;BME280_temperature;BME280_humidity;BME280_pressure;Samples;Min_cycle;Max_cycle;Signal;HPM_P1;HPM_P2
2023/12/25 00:01:26;;;;;;;12.20;2.72;;;12.70;95.00;;;;;;5051311;28;20029;-46
2023/12/25 00:03:51;;;;;;;8.05;1.95;;;12.70;95.00;;;;;;5051474;28;20399;-59
2023/12/25 00:06:18;;;;;;;7.72;2.22;;;12.60;94.90;;;;;;5051310;28;20021;-49
2023/12/25 00:08:43;;;;;;;8.15;2.50;;;12.70;95.00;;;;;;5051668;28;20517;-47
2023/12/25 00:11:10;;;;;;;6.13;2.30;;;12.60;94.90;;;;;;5051119;28;20104;-46
2023/12/25 00:13:36;;;;;;;6.60;2.28;;;12.60;94.90;;;;;;5051664;28;20048;-47
2023/12/25 00:16:01;;;;;;;10.70;3.03;;;12.60;95.00;;;;;;5051214;28;20076;-45
2023/12/25 00:18:27;;;;;;;7.55;2.10;;;12.60;95.00;;;;;;5051166;28;20026;-46
2023/12/25 00:20:52;;;;;;;9.02;2.33;;;12.60;95.00;;;;;;5049837;28;20029;-45
2023/12/25 00:23:18;;;;;;;8.55;2.40;;;12.60;95.10;;;;;;5051569;28;20025;-49
2023/12/25 00:25:43;;;;;;;8.38;2.35;;;12.60;95.20;;;;;;5051575;28;20025;-43
2023/12/25 00:28:09;;;;;;;9.38;2.10;;;12.50;95.20;;;;;;5051460;28;20457;-43
2023/12/25 00:30:34;;;;;;;6.43;2.10;;;12.50;95.30;;;;;;5051259;28;20052;-46
2023/12/25 00:33:00;;;;;;;9.38;2.30;;;12.50;95.40;;;;;;5050969;28;20493;-44
2023/12/25 00:35:26;;;;;;;5.15;1.80;;;12.40;95.40;;;;;;5051158;28;20029;-48
2023/12/25 00:37:52;;;;;;;8.75;2.50;;;12.50;95.40;;;;;;5051097;28;20095;-44
2023/12/25 00:40:17;;;;;;;6.43;1.95;;;12.50;95.40;;;;;;5050841;28;20385;-49
2023/12/25 00:42:43;;;;;;;12.43;2.22;;;12.40;95.40;;;;;;5054844;28;20064;-48
2023/12/25 00:45:09;;;;;;;7.85;1.90;;;12.50;95.30;;;;;;5055025;28;20064;-51
2023/12/25 00:47:34;;;;;;;12.07;2.60;;;12.50;95.30;;;;;;5054844;28;20452;-45
2023/12/25 00:50:00;;;;;;;8.35;2.22;;;12.50;95.40;;;;;;5054641;28;20025;-46
2023/12/25 00:52:25;;;;;;;8.85;2.10;;;12.50;95.30;;;;;;5055058;28;20107;-46
2023/12/25 00:54:51;;;;;;;6.93;2.10;;;12.50;95.30;;;;;;5054781;28;20057;-45
2023/12/25 00:57:16;;;;;;;8.55;1.83;;;12.50;95.40;;;;;;5054658;28;20028;-48
2023/12/25 00:59:42;;;;;;;7.10;2.30;;;12.50;95.40;;;;;;5054611;28;20481;-43
2023/12/25 01:02:07;;;;;;;12.10;2.65;;;12.40;95.60;;;;;;5054753;28;20013;-47
2023/12/25 01:04:33;;;;;;;9.38;2.35;;;12.40;95.70;;;;;;5054352;28;20393;-48
2023/12/25 01:06:59;;;;;;;10.55;2.50;;;12.30;95.70;;;;;;5054579;28;20082;-51
2023/12/25 01:09:24;;;;;;;7.10;2.33;;;12.30;95.80;;;;;;5054703;28;20013;-47
2023/12/25 01:11:50;;;;;;;9.50;2.97;;;12.30;96.00;;;;;;5054358;28;20468;-48
2023/12/25 01:14:16;;;;;;;11.00;2.38;;;12.20;96.10;;;;;;5054331;28;20075;-52
2023/12/25 01:16:42;;;;;;;9.60;2.40;;;12.20;96.20;;;;;;5054543;28;20373;-49
2023/12/25 01:19:07;;;;;;;10.10;2.42;;;12.20;96.30;;;;;;5054473;28;20023;-48
2023/12/25 01:21:33;;;;;;;7.85;2.00;;;12.10;96.40;;;;;;5054014;28;20104;-47
2023/12/25 01:23:59;;;;;;;8.98;1.92;;;12.10;96.40;;;;;;5054107;28;20067;-47
2023/12/25 01:26:25;;;;;;;8.52;1.80;;;12.10;96.50;;;;;;5052897;28;20368;-53
2023/12/25 01:28:51;;;;;;;5.15;1.45;;;12.10;96.60;;;;;;5054259;28;20436;-50
2023/12/25 01:31:17;;;;;;;5.00;1.45;;;12.10;96.60;;;;;;5053852;28;20053;-50
2023/12/25 01:33:42;;;;;;;3.92;1.48;;;12.00;96.60;;;;;;5053805;28;20111;-44
2023/12/25 01:36:08;;;;;;;7.28;1.90;;;12.00;96.60;;;;;;5054035;28;20033;-47
2023/12/25 01:38:33;;;;;;;7.47;2.00;;;12.00;96.70;;;;;;5053814;28;20032;-41
2023/12/25 01:40:59;;;;;;;7.20;1.92;;;12.00;96.80;;;;;;5053955;28;20044;-45
2023/12/25 01:43:25;;;;;;;10.05;2.22;;;11.90;96.80;;;;;;5053908;28;20044;-47
2023/12/25 01:45:50;;;;;;;11.45;2.58;;;12.00;96.80;;;;;;5054170;28;20380;-43
2023/12/25 01:48:16;;;;;;;15.20;2.78;;;12.00;96.80;;;;;;5053819;28;20120;-49
2023/12/25 01:50:43;;;;;;;11.43;2.90;;;12.00;96.80;;;;;;5053661;28;20476;-44
2023/12/25 01:53:08;;;;;;;13.18;2.40;;;12.00;96.80;;;;;;5052793;28;20211;-45
2023/12/25 01:55:35;;;;;;;12.68;2.55;;;12.00;96.80;;;;;;5053482;28;20477;-47
2023/12/25 01:58:01;;;;;;;9.30;2.10;;;12.00;96.80;;;;;;5052437;28;20070;-43
2023/12/25 02:00:26;;;;;;;9.18;1.95;;;11.90;96.70;;;;;;5053345;28;20025;-44
2023/12/25 02:02:52;;;;;;;9.30;1.85;;;11.90;96.60;;;;;;5053216;28;20094;-42
2023/12/25 02:05:18;;;;;;;9.38;2.17;;;11.90;96.50;;;;;;5053443;28;20032;-44
2023/12/25 02:07:45;;;;;;;4.05;1.38;;;11.90;96.40;;;;;;5053596;28;20040;-47
2023/12/25 02:10:24;;;;;;;7.47;1.42;;;11.80;96.20;;;;;;5053252;28;20032;-46
2023/12/25 02:12:49;;;;;;;4.90;1.48;;;11.70;95.80;;;;;;5053677;28;20033;-47
2023/12/25 02:15:15;;;;;;;6.43;1.15;;;11.50;95.70;;;;;;5053435;28;20024;-52
2023/12/25 02:17:40;;;;;;;3.58;0.93;;;11.40;95.50;;;;;;5053237;28;20021;-48
2023/12/25 02:20:07;;;;;;;4.80;1.13;;;11.20;95.30;;;;;;5053067;28;20025;-47
2023/12/25 02:22:33;;;;;;;3.80;0.90;;;11.10;95.40;;;;;;5053182;28;20394;-45
2023/12/25 02:25:07;;;;;;;4.15;0.90;;;11.00;95.50;;;;;;5053335;28;20029;-47
2023/12/25 02:27:32;;;;;;;3.33;0.90;;;10.90;95.50;;;;;;5053126;28;20370;-45
2023/12/25 02:29:58;;;;;;;5.82;0.88;;;10.90;95.60;;;;;;5052982;28;20111;-46
2023/12/25 02:32:24;;;;;;;1.90;0.70;;;10.70;95.70;;;;;;5053029;28;20033;-47
2023/12/25 02:34:50;;;;;;;1.90;0.60;;;10.70;96.00;;;;;;5053213;28;20021;-45
2023/12/25 02:37:15;;;;;;;2.55;0.70;;;10.70;96.10;;;;;;5052988;28;20024;-50
2023/12/25 02:39:41;;;;;;;2.35;0.90;;;10.70;96.30;;;;;;5052970;28;20021;-45
2023/12/25 02:42:06;;;;;;;2.83;0.93;;;10.70;96.40;;;;;;5052930;28;20017;-45
2023/12/25 02:44:32;;;;;;;3.97;1.00;;;10.80;96.50;;;;;;5052987;28;20013;-44
2023/12/25 02:46:57;;;;;;;4.00;1.13;;;10.80;96.50;;;;;;5052691;28;20098;-51
2023/12/25 02:49:23;;;;;;;7.03;1.40;;;10.80;96.60;;;;;;5052575;28;20512;-44
2023/12/25 02:51:49;;;;;;;12.07;1.90;;;10.90;96.80;;;;;;5052585;28;20029;-44
2023/12/25 02:54:14;;;;;;;11.48;2.03;;;11.00;96.80;;;;;;5052532;28;20021;-43
2023/12/25 02:56:40;;;;;;;13.18;2.38;;;11.10;96.90;;;;;;5052748;28;20500;-47
2023/12/25 02:59:06;;;;;;;14.75;3.00;;;11.20;96.90;;;;;;5052498;28;20032;-47
2023/12/25 03:01:31;;;;;;;12.25;2.58;;;11.30;97.00;;;;;;5052228;28;20071;-46
2023/12/25 03:03:57;;;;;;;15.80;3.20;;;11.30;97.10;;;;;;5052467;28;20067;-52
2023/12/25 03:06:23;;;;;;;10.18;2.63;;;11.40;97.10;;;;;;5050903;28;20025;-47
2023/12/25 03:08:48;;;;;;;15.15;3.00;;;11.50;97.10;;;;;;5052579;28;20020;-54
2023/12/25 03:11:14;;;;;;;15.93;2.70;;;11.50;97.10;;;;;;5051998;28;20037;-44
2023/12/25 03:13:39;;;;;;;13.45;2.65;;;11.60;97.10;;;;;;5052201;28;20048;-46
2023/12/25 03:16:05;;;;;;;11.20;2.78;;;11.60;97.10;;;;;;5052286;28;20036;-45
2023/12/25 03:18:32;;;;;;;13.52;3.00;;;11.60;97.10;;;;;;5051860;28;20092;-55
2023/12/25 03:20:57;;;;;;;15.00;3.17;;;11.60;97.10;;;;;;5052204;28;20017;-46
2023/12/25 03:23:23;;;;;;;9.10;2.22;;;11.70;97.40;;;;;;5052047;28;20055;-47
2023/12/25 03:25:48;;;;;;;11.60;2.70;;;11.70;97.10;;;;;;5052088;28;20429;-46
2023/12/25 03:28:14;;;;;;;13.13;2.78;;;11.70;97.40;;;;;;5051807;28;20104;-42
2023/12/25 03:30:39;;;;;;;18.67;3.33;;;11.70;97.20;;;;;;5052243;28;20025;-45
2023/12/25 03:33:07;;;;;;;11.25;2.72;;;11.70;97.20;;;;;;5051706;28;20049;-46
2023/12/25 03:35:33;;;;;;;14.10;2.70;;;11.80;97.20;;;;;;5052070;28;20037;-46
2023/12/25 03:37:59;;;;;;;14.07;2.60;;;11.80;97.20;;;;;;5052019;28;20051;-49
2023/12/25 03:40:24;;;;;;;14.80;2.50;;;11.80;97.20;;;;;;5051799;28;20033;-41
2023/12/25 03:42:50;;;;;;;17.60;3.55;;;11.80;97.20;;;;;;5050402;28;20070;-48
2023/12/25 03:45:15;;;;;;;14.98;2.83;;;11.80;97.10;;;;;;5051809;28;20056;-49
2023/12/25 03:47:41;;;;;;;10.23;2.20;;;11.90;97.10;;;;;;5051909;28;20028;-43
2023/12/25 03:50:07;;;;;;;12.95;2.80;;;11.90;97.40;;;;;;5051767;28;20066;-45
2023/12/25 03:52:32;;;;;;;13.10;2.67;;;11.90;97.00;;;;;;5051511;28;20033;-47
2023/12/25 03:54:58;;;;;;;16.33;3.20;;;11.90;97.00;;;;;;5051498;28;20399;-44
2023/12/25 03:57:23;;;;;;;11.10;2.50;;;11.90;96.90;;;;;;5051504;28;20048;-46
2023/12/25 03:59:49;;;;;;;13.85;2.75;;;11.90;96.90;;;;;;5051556;28;20021;-45
2023/12/25 04:02:14;;;;;;;13.77;3.20;;;11.90;96.90;;;;;;5051243;28;20021;-45
2023/12/25 04:04:40;;;;;;;13.23;2.90;;;11.90;96.80;;;;;;5051458;28;20136;-43
2023/12/25 04:07:06;;;;;;;13.23;2.97;;;11.90;96.80;;;;;;5051766;28;20535;-41
2023/12/25 04:09:31;;;;;;;10.18;2.38;;;11.90;96.80;;;;;;5051319;28;20021;-45
2023/12/25 04:11:57;;;;;;;12.52;2.55;;;11.90;96.70;;;;;;5051267;28;20112;-45
2023/12/25 04:14:22;;;;;;;7.78;2.05;;;11.90;96.70;;;;;;5051403;28;20029;-44
2023/12/25 04:16:48;;;;;;;16.02;3.17;;;11.90;96.60;;;;;;5055276;28;20099;-47
2023/12/25 04:19:13;;;;;;;18.50;3.17;;;12.00;96.60;;;;;;5054380;28;20029;-44
2023/12/25 04:21:39;;;;;;;9.80;2.42;;;11.90;96.50;;;;;;5055325;28;20024;-44
2023/12/25 04:24:05;;;;;;;9.07;2.00;;;11.90;96.40;;;;;;5055584;28;20025;-42
2023/12/25 04:26:30;;;;;;;8.98;2.30;;;11.90;96.40;;;;;;5055709;28;20078;-43
2023/12/25 04:28:56;;;;;;;12.18;2.30;;;12.00;96.40;;;;;;5055518;28;20025;-45
2023/12/25 04:31:22;;;;;;;10.65;2.28;;;11.90;96.40;;;;;;5055256;28;20028;-44
2023/12/25 04:33:48;;;;;;;11.95;2.20;;;11.90;96.40;;;;;;5054998;28;20047;-49
2023/12/25 04:36:14;;;;;;;17.35;2.75;;;11.90;96.40;;;;;;5055198;28;20060;-43
2023/12/25 04:38:39;;;;;;;9.23;2.08;;;11.90;96.40;;;;;;5054960;28;20110;-50
2023/12/25 04:41:05;;;;;;;10.60;2.28;;;11.90;96.40;;;;;;5055019;28;20032;-44
2023/12/25 04:43:31;;;;;;;11.52;2.35;;;11.90;96.40;;;;;;5055406;28;20599;-42
2023/12/25 04:45:57;;;;;;;10.55;2.17;;;11.90;96.40;;;;;;5053940;28;20035;-42
2023/12/25 04:48:22;;;;;;;13.30;2.45;;;11.90;96.30;;;;;;5054979;28;20036;-44
2023/12/25 04:50:48;;;;;;;14.57;2.92;;;11.90;96.40;;;;;;5055015;28;20040;-45
2023/12/25 04:53:14;;;;;;;13.30;2.78;;;11.90;96.40;;;;;;5054971;28;20025;-46
2023/12/25 04:55:40;;;;;;;13.93;2.70;;;11.90;96.40;;;;;;5054711;28;20025;-49
2023/12/25 04:58:06;;;;;;;11.85;2.60;;;11.90;96.30;;;;;;5054849;28;20029;-44
2023/12/25 05:00:32;;;;;;;13.20;2.65;;;12.00;96.30;;;;;;5054594;28;20535;-45
2023/12/25 05:02:58;;;;;;;7.97;2.25;;;12.00;96.30;;;;;;5054645;28;20033;-47
2023/12/25 05:05:25;;;;;;;9.52;2.33;;;12.00;96.30;;;;;;5054644;28;20028;-45
2023/12/25 05:07:51;;;;;;;9.38;2.20;;;12.00;96.30;;;;;;5053293;28;20090;-44
2023/12/25 05:10:16;;;;;;;10.60;2.13;;;12.00;96.20;;;;;;5054282;28;20480;-43
2023/12/25 05:12:42;;;;;;;11.48;2.70;;;12.00;96.20;;;;;;5054911;28;20025;-45
2023/12/25 05:15:08;;;;;;;8.20;1.83;;;12.10;96.20;;;;;;5054352;28;20020;-44
2023/12/25 05:17:33;;;;;;;10.63;2.17;;;12.00;96.20;;;;;;5054095;28;20078;-39
2023/12/25 05:19:59;;;;;;;9.23;2.15;;;12.10;96.20;;;;;;5054055;28;20373;-44
2023/12/25 05:22:24;;;;;;;7.28;2.10;;;12.00;96.20;;;;;;5054343;28;20404;-45
2023/12/25 05:24:50;;;;;;;11.48;3.20;;;12.10;96.20;;;;;;5054216;28;20021;-43
2023/12/25 05:27:16;;;;;;;11.85;2.45;;;12.10;96.20;;;;;;5054362;28;20029;-45
2023/12/25 05:29:41;;;;;;;11.32;1.85;;;12.00;96.10;;;;;;5054173;28;20051;-48
2023/12/25 05:32:07;;;;;;;9.70;2.03;;;12.00;96.10;;;;;;5053796;28;20067;-47
2023/12/25 05:34:32;;;;;;;6.65;1.58;;;12.00;96.10;;;;;;5054057;28;20025;-48
2023/12/25 05:36:58;;;;;;;11.23;2.08;;;11.90;96.00;;;;;;5054160;28;20094;-49
2023/12/25 05:39:26;;;;;;;6.00;1.65;;;11.90;96.00;;;;;;5054317;28;20040;-45
2023/12/25 05:41:53;;;;;;;4.95;1.15;;;11.70;96.00;;;;;;5052426;28;20032;-45
2023/12/25 05:44:19;;;;;;;6.15;1.40;;;11.70;96.00;;;;;;5053908;28;20013;-49
2023/12/25 05:46:44;;;;;;;6.18;1.35;;;11.60;96.00;;;;;;5053658;28;20079;-49
2023/12/25 05:49:10;;;;;;;6.53;1.17;;;11.60;96.00;;;;;;5053865;28;20439;-49
2023/12/25 05:51:35;;;;;;;4.18;1.55;;;11.50;96.10;;;;;;5053941;28;20021;-49
2023/12/25 05:54:01;;;;;;;4.97;1.50;;;11.50;96.20;;;;;;5053795;28;20033;-47
2023/12/25 05:56:27;;;;;;;7.68;1.60;;;11.50;96.20;;;;;;5053471;28;20021;-48
2023/12/25 05:58:53;;;;;;;8.98;2.15;;;11.50;96.30;;;;;;5053945;28;20465;-44
2023/12/25 06:01:18;;;;;;;7.47;2.13;;;11.60;96.40;;;;;;5053289;28;20028;-44
2023/12/25 06:03:44;;;;;;;8.77;2.28;;;11.60;96.50;;;;;;5053553;28;20032;-46
2023/12/25 06:06:10;;;;;;;6.55;2.17;;;11.70;96.60;;;;;;5053239;28;20053;-45
2023/12/25 06:08:36;;;;;;;6.90;2.05;;;11.70;96.60;;;;;;5053475;28;20056;-46
2023/12/25 06:11:01;;;;;;;7.05;1.95;;;11.70;96.60;;;;;;5053435;28;20017;-46
2023/12/25 06:13:27;;;;;;;7.43;2.42;;;11.70;96.60;;;;;;5053680;28;20025;-42
2023/12/25 06:15:53;;;;;;;6.72;2.53;;;11.80;96.60;;;;;;5053591;28;20411;-43
2023/12/25 06:18:19;;;;;;;10.68;2.50;;;11.80;96.60;;;;;;5053153;28;20025;-44
2023/12/25 06:20:45;;;;;;;8.38;2.30;;;11.80;96.60;;;;;;5053081;28;20045;-50
2023/12/25 06:23:11;;;;;;;7.13;2.53;;;11.80;96.70;;;;;;5053162;28;20108;-43
2023/12/25 06:25:36;;;;;;;7.88;2.15;;;11.80;96.70;;;;;;5053219;28;20079;-44
2023/12/25 06:28:02;;;;;;;8.05;2.40;;;11.80;96.70;;;;;;5053102;28;20037;-42
2023/12/25 06:30:28;;;;;;;7.22;2.20;;;11.80;96.70;;;;;;5052851;28;20021;-42
2023/12/25 06:32:54;;;;;;;5.82;2.30;;;11.80;96.70;;;;;;5052731;28;20056;-42
2023/12/25 06:35:20;;;;;;;5.43;2.17;;;11.80;96.70;;;;;;5052864;28;20033;-46
2023/12/25 06:37:45;;;;;;;6.05;2.42;;;11.80;96.80;;;;;;5052295;28;20496;-45
2023/12/25 06:40:11;;;;;;;7.03;1.83;;;11.80;96.80;;;;;;5053181;28;20028;-48
2023/12/25 06:42:37;;;;;;;5.43;1.88;;;11.80;96.80;;;;;;5053012;28;20041;-44
2023/12/25 06:45:03;;;;;;;8.38;1.83;;;11.80;96.80;;;;;;5053170;28;20100;-46
2023/12/25 06:47:28;;;;;;;5.57;1.77;;;11.80;96.90;;;;;;5052854;28;20028;-54
2023/12/25 06:49:54;;;;;;;2.97;1.30;;;11.70;96.80;;;;;;5052617;28;20021;-47
2023/12/25 06:52:20;;;;;;;6.68;1.73;;;11.70;96.80;;;;;;5052452;28;20072;-45
2023/12/25 06:54:45;;;;;;;4.07;1.60;;;11.70;96.80;;;;;;5051374;28;20025;-46
2023/12/25 06:57:13;;;;;;;4.10;1.50;;;11.70;96.90;;;;;;5052351;28;20112;-47
2023/12/25 06:59:43;;;;;;;6.63;1.50;;;11.70;96.90;;;;;;5052679;28;20530;-50
2023/12/25 07:02:09;;;;;;;5.18;1.55;;;11.70;96.90;;;;;;5052234;28;20384;-48
2023/12/25 07:04:35;;;;;;;7.82;1.35;;;11.70;96.90;;;;;;5052686;28;20021;-45
2023/12/25 07:07:01;;;;;;;4.68;1.30;;;11.60;96.90;;;;;;5052525;28;20039;-49
2023/12/25 07:09:26;;;;;;;3.75;1.20;;;11.60;96.80;;;;;;5052309;28;20484;-48
2023/12/25 07:11:52;;;;;;;3.15;0.88;;;11.60;96.80;;;;;;5052731;28;20028;-47
2023/12/25 07:14:18;;;;;;;3.40;1.00;;;11.60;96.90;;;;;;5052396;28;20025;-46
2023/12/25 07:16:44;;;;;;;2.25;0.90;;;11.60;96.90;;;;;;5052152;28;20021;-49
2023/12/25 07:19:09;;;;;;;4.05;1.10;;;11.60;96.90;;;;;;5052300;28;20074;-46
2023/12/25 07:21:35;;;;;;;4.90;1.00;;;11.60;96.80;;;;;;5052029;28;20096;-47
2023/12/25 07:24:01;;;;;;;3.17;0.98;;;11.50;96.80;;;;;;5052059;28;20028;-49
2023/12/25 07:26:26;;;;;;;2.40;1.00;;;11.50;96.80;;;;;;5052016;28;20381;-45
2023/12/25 07:28:52;;;;;;;3.35;1.02;;;11.50;96.80;;;;;;5052311;28;20044;-51
2023/12/25 07:31:18;;;;;;;3.40;0.90;;;11.50;96.70;;;;;;5051736;28;20393;-46
2023/12/25 07:33:43;;;;;;;2.30;0.80;;;11.40;96.70;;;;;;5051651;28;20077;-47
2023/12/25 07:36:09;;;;;;;3.15;1.00;;;11.40;96.60;;;;;;5050425;28;20025;-49
2023/12/25 07:38:35;;;;;;;3.63;0.77;;;11.40;96.60;;;;;;5051717;28;20362;-47
2023/12/25 07:41:01;;;;;;;2.42;0.85;;;11.40;96.60;;;;;;5051726;28;20358;-48
2023/12/25 07:43:27;;;;;;;2.63;0.60;;;11.40;96.50;;;;;;5051717;28;20025;-42
2023/12/25 07:45:53;;;;;;;2.33;0.82;;;11.40;96.60;;;;;;5051830;28;20114;-49
2023/12/25 07:48:19;;;;;;;1.67;0.80;;;11.30;96.60;;;;;;5051538;28;20086;-48
2023/12/25 07:50:45;;;;;;;1.90;0.90;;;11.40;96.50;;;;;;5050355;28;20742;-44
2023/12/25 07:53:10;;;;;;;5.00;0.70;;;11.40;96.50;;;;;;5050477;28;20393;-43
2023/12/25 07:55:38;;;;;;;2.60;0.90;;;11.30;96.50;;;;;;5050316;28;20017;-45
2023/12/25 07:58:04;;;;;;;3.08;0.60;;;11.30;96.50;;;;;;5050582;28;20428;-44
2023/12/25 08:00:29;;;;;;;2.03;0.60;;;11.30;96.50;;;;;;5050297;28;20028;-49
2023/12/25 08:02:55;;;;;;;3.55;0.70;;;11.30;96.50;;;;;;5050739;28;20017;-47
2023/12/25 08:05:21;;;;;;;3.38;0.90;;;11.30;96.50;;;;;;5051186;28;20392;-46
2023/12/25 08:07:47;;;;;;;3.95;0.80;;;11.30;96.50;;;;;;5051531;28;20021;-45
2023/12/25 08:10:13;;;;;;;3.80;0.77;;;11.30;96.50;;;;;;5051210;28;20056;-44
2023/12/25 08:12:42;;;;;;;2.72;0.90;;;11.30;96.50;;;;;;5051504;28;20064;-45
2023/12/25 08:15:12;;;;;;;2.22;0.60;;;11.30;96.50;;;;;;5051309;28;20021;-46
2023/12/25 08:17:39;;;;;;;1.88;1.00;;;11.30;96.40;;;;;;5051565;28;20021;-45
2023/12/25 08:20:06;;;;;;;3.05;1.08;;;11.30;96.30;;;;;;5051444;28;20028;-46
2023/12/25 08:22:32;;;;;;;3.20;0.70;;;11.30;96.40;;;;;;5051626;28;20029;-46
2023/12/25 08:24:58;;;;;;;2.60;1.00;;;11.30;96.30;;;;;;5051260;28;20028;-43
2023/12/25 08:27:23;;;;;;;1.02;0.68;;;11.30;96.30;;;;;;5051666;28;20033;-47
2023/12/25 08:29:49;;;;;;;2.05;0.82;;;11.30;96.20;;;;;;5051513;28;20496;-44
2023/12/25 08:32:14;;;;;;;3.17;0.88;;;11.30;96.20;;;;;;5050911;28;20060;-45
2023/12/25 08:34:41;;;;;;;4.00;1.00;;;11.30;96.20;;;;;;5051297;28;20033;-45
2023/12/25 08:37:07;;;;;;;2.53;0.85;;;11.30;96.20;;;;;;5051249;28;20049;-43
2023/12/25 08:39:33;;;;;;;3.42;1.00;;;11.30;96.20;;;;;;5051388;28;20045;-47
2023/12/25 08:42:00;;;;;;;2.70;0.98;;;11.30;96.20;;;;;;5051010;28;20100;-47
2023/12/25 08:44:27;;;;;;;2.95;0.82;;;11.40;96.20;;;;;;5051261;28;20072;-46
2023/12/25 08:46:52;;;;;;;3.20;1.08;;;11.40;96.20;;;;;;5051205;28;20116;-45
2023/12/25 08:49:18;;;;;;;3.10;1.10;;;11.40;96.10;;;;;;5051090;28;20060;-44
2023/12/25 08:51:44;;;;;;;4.93;1.17;;;11.40;96.10;;;;;;5051434;28;20026;-44
2023/12/25 08:54:09;;;;;;;4.68;1.08;;;11.40;96.10;;;;;;5051262;28;20017;-46
2023/12/25 08:56:35;;;;;;;1.67;1.02;;;11.50;96.20;;;;;;5049657;28;20025;-44
2023/12/25 08:59:00;;;;;;;4.38;1.08;;;11.50;96.20;;;;;;5051571;28;20025;-48
2023/12/25 09:01:28;;;;;;;5.10;1.10;;;11.50;96.10;;;;;;5052596;28;20525;-46
2023/12/25 09:03:54;;;;;;;3.38;0.88;;;11.50;96.10;;;;;;5055069;28;20538;-45
2023/12/25 09:06:19;;;;;;;2.72;1.10;;;11.50;96.10;;;;;;5054778;28;20021;-51
2023/12/25 09:08:46;;;;;;;3.65;1.00;;;11.60;96.10;;;;;;5054753;28;20473;-44
2023/12/25 09:11:12;;;;;;;2.10;1.10;;;11.60;96.00;;;;;;5054712;28;20021;-46
2023/12/25 09:13:43;;;;;;;3.33;1.15;;;11.50;96.30;;;;;;5055004;28;20033;-43
2023/12/25 09:16:09;;;;;;;3.10;1.00;;;11.60;96.00;;;;;;5055189;28;20473;-44
2023/12/25 09:18:35;;;;;;;1.70;0.90;;;11.50;96.00;;;;;;5054682;28;20017;-44
2023/12/25 09:21:00;;;;;;;3.03;1.20;;;11.60;96.00;;;;;;5054543;28;20526;-45
2023/12/25 09:23:26;;;;;;;2.72;1.08;;;11.60;96.00;;;;;;5053304;28;20009;-43
2023/12/25 09:25:52;;;;;;;1.73;1.00;;;11.60;96.00;;;;;;5054711;28;20029;-47
2023/12/25 09:28:17;;;;;;;3.40;1.20;;;11.60;95.90;;;;;;5054431;28;20025;-44
2023/12/25 09:30:44;;;;;;;3.58;1.30;;;11.60;96.00;;;;;;5054323;28;20056;-44
2023/12/25 09:33:10;;;;;;;3.72;1.70;;;11.60;95.90;;;;;;5054159;28;20413;-48
2023/12/25 09:35:36;;;;;;;4.22;1.08;;;11.60;95.90;;;;;;5054471;28;20036;-45
2023/12/25 09:38:02;;;;;;;2.08;1.17;;;11.70;95.90;;;;;;5054437;28;20107;-48
2023/12/25 09:40:27;;;;;;;2.50;1.23;;;11.60;95.90;;;;;;5054101;28;20013;-45
2023/12/25 09:42:53;;;;;;;3.03;1.30;;;11.70;95.90;;;;;;5054050;28;20078;-45
2023/12/25 09:45:20;;;;;;;2.10;1.10;;;11.70;95.90;;;;;;5054220;28;20115;-46
2023/12/25 09:47:47;;;;;;;2.47;1.33;;;11.70;95.90;;;;;;5053925;28;20014;-49
2023/12/25 09:50:13;;;;;;;1.85;1.15;;;11.70;95.80;;;;;;5053837;28;20082;-44
2023/12/25 09:52:39;;;;;;;4.90;1.45;;;11.70;95.80;;;;;;5054055;28;20032;-42
2023/12/25 09:55:05;;;;;;;2.72;1.20;;;11.60;95.80;;;;;;5054399;28;20376;-44
2023/12/25 09:57:32;;;;;;;2.80;1.25;;;11.70;95.80;;;;;;5053792;28;20086;-49
2023/12/25 10:00:00;;;;;;;3.08;1.15;;;11.70;95.90;;;;;;5054284;28;20033;-43
2023/12/25 10:02:28;;;;;;;1.20;1.10;;;11.70;95.80;;;;;;5052528;28;20108;-49
2023/12/25 10:04:57;;;;;;;1.95;1.20;;;11.70;95.80;;;;;;5052608;28;20098;-45
2023/12/25 10:07:22;;;;;;;1.90;1.30;;;11.70;95.90;;;;;;5054053;28;20021;-45
2023/12/25 10:09:49;;;;;;;3.08;1.30;;;11.80;95.90;;;;;;5053962;28;20035;-46
2023/12/25 10:12:15;;;;;;;2.22;0.90;;;11.90;95.90;;;;;;5053277;28;20059;-46
2023/12/25 10:14:44;;;;;;;2.20;1.00;;;11.90;95.80;;;;;;5053296;28;20025;-48
2023/12/25 10:17:12;;;;;;;1.25;0.88;;;11.90;95.70;;;;;;5052314;28;20060;-44
2023/12/25 10:19:54;;;;;;;1.88;1.20;;;11.90;95.70;;;;;;5053511;28;20525;-43
2023/12/25 10:22:43;;;;;;;1.25;0.80;;;11.90;95.60;;;;;;5053529;28;20017;-48
2023/12/25 10:25:14;;;;;;;1.85;0.90;;;11.90;95.60;;;;;;5053474;28;20032;-47
2023/12/25 10:27:43;;;;;;;2.92;1.08;;;11.90;95.70;;;;;;5052186;28;20561;-49
2023/12/25 10:30:24;;;;;;;2.63;0.98;;;11.90;95.70;;;;;;5052054;28;20025;-45
2023/12/25 10:33:15;;;;;;;4.15;1.00;;;11.90;95.60;;;;;;5053428;28;20077;-46
2023/12/25 10:35:59;;;;;;;2.25;0.98;;;11.90;95.60;;;;;;5053431;28;20071;-48
2023/12/25 10:38:28;;;;;;;1.67;0.63;;;11.80;95.50;;;;;;5052063;28;20024;-48
2023/12/25 10:40:53;;;;;;;3.50;0.82;;;11.80;95.60;;;;;;5053370;28;20020;-46
2023/12/25 10:43:23;;;;;;;3.15;0.95;;;11.80;95.60;;;;;;5051936;28;20036;-46
2023/12/25 10:45:53;;;;;;;2.13;0.93;;;11.80;95.50;;;;;;5051873;28;20029;-44
2023/12/25 10:48:21;;;;;;;2.38;0.90;;;11.80;95.60;;;;;;5053186;28;20017;-46
2023/12/25 10:50:47;;;;;;;3.50;1.13;;;11.80;95.50;;;;;;5052711;28;20021;-45
2023/12/25 10:53:16;;;;;;;2.97;1.25;;;11.80;95.50;;;;;;5052837;28;20032;-48
2023/12/25 10:55:44;;;;;;;2.97;1.08;;;11.90;95.60;;;;;;5053023;28;20025;-45
2023/12/25 10:58:30;;;;;;;2.50;0.88;;;11.80;95.50;;;;;;5051476;28;20029;-44
2023/12/25 11:01:01;;;;;;;3.67;1.00;;;11.80;95.40;;;;;;5052593;28;20048;-47
2023/12/25 11:03:28;;;;;;;1.63;0.82;;;11.80;95.40;;;;;;5052776;28;20469;-47
2023/12/25 11:05:54;;;;;;;2.08;0.80;;;11.80;95.30;;;;;;5051395;28;20029;-45
2023/12/25 11:08:20;;;;;;;3.35;0.90;;;11.80;95.40;;;;;;5052449;28;20401;-50
2023/12/25 11:10:46;;;;;;;2.97;0.93;;;11.80;95.40;;;;;;5051108;28;20025;-48
2023/12/25 11:13:15;;;;;;;1.42;0.90;;;11.80;95.40;;;;;;5053064;28;20107;-45
2023/12/25 11:15:41;;;;;;;1.15;0.90;;;11.80;95.40;;;;;;5051362;28;20092;-47
2023/12/25 11:18:09;;;;;;;1.95;0.98;;;11.80;95.30;;;;;;5052544;28;20033;-45
2023/12/25 11:20:34;;;;;;;3.92;0.93;;;11.90;95.30;;;;;;5052240;28;20021;-45
2023/12/25 11:23:05;;;;;;;2.97;0.80;;;11.90;95.20;;;;;;5052380;28;20552;-48
2023/12/25 11:25:33;;;;;;;2.75;0.95;;;11.90;95.20;;;;;;5050934;28;20542;-49
2023/12/25 11:28:02;;;;;;;2.65;1.00;;;12.00;95.00;;;;;;5052568;28;20022;-50
2023/12/25 11:30:27;;;;;;;2.70;1.27;;;12.00;95.00;;;;;;5050720;28;20106;-44
2023/12/25 11:32:54;;;;;;;2.28;0.80;;;12.00;94.90;;;;;;5051867;28;20517;-46
2023/12/25 11:35:28;;;;;;;1.60;1.00;;;12.00;94.90;;;;;;5051892;28;20047;-44
2023/12/25 11:38:16;;;;;;;2.88;1.00;;;12.00;94.80;;;;;;5052293;28;20021;-46
2023/12/25 11:40:43;;;;;;;3.40;1.02;;;12.00;94.70;;;;;;5048701;28;20078;-46
2023/12/25 11:43:09;;;;;;;2.25;0.80;;;12.00;95.00;;;;;;5051854;28;20516;-44
2023/12/25 11:45:41;;;;;;;3.90;1.00;;;12.00;94.50;;;;;;5051645;28;20021;-44
2023/12/25 11:48:10;;;;;;;2.50;0.90;;;12.00;94.30;;;;;;5051895;28;20048;-46
2023/12/25 11:50:36;;;;;;;2.33;1.08;;;12.00;94.30;;;;;;5051805;28;20020;-49
2023/12/25 11:53:02;;;;;;;3.15;1.10;;;11.90;94.30;;;;;;5052274;28;20037;-49
2023/12/25 11:55:27;;;;;;;3.15;1.13;;;11.90;94.10;;;;;;5051662;28;20112;-46
2023/12/25 11:57:53;;;;;;;3.75;1.00;;;11.90;94.10;;;;;;5051625;28;20497;-46
2023/12/25 12:00:25;;;;;;;3.20;0.90;;;11.90;94.00;;;;;;5051871;28;20491;-46
2023/12/25 12:02:51;;;;;;;3.10;1.00;;;11.90;94.10;;;;;;5051640;28;20021;-45
2023/12/25 12:05:16;;;;;;;3.47;0.90;;;11.90;93.90;;;;;;5051560;28;20117;-47
2023/12/25 12:07:43;;;;;;;3.38;0.90;;;11.90;93.90;;;;;;5051603;28;20022;-51
2023/12/25 12:10:10;;;;;;;3.00;0.90;;;11.90;93.90;;;;;;5051429;28;20073;-43
2023/12/25 12:12:36;;;;;;;4.30;1.10;;;11.90;93.90;;;;;;5051902;28;20021;-45
2023/12/25 12:15:03;;;;;;;4.25;1.10;;;11.90;94.00;;;;;;5051439;28;20092;-49
2023/12/25 12:17:29;;;;;;;2.83;0.90;;;11.80;93.90;;;;;;5051606;28;20025;-47
2023/12/25 12:19:55;;;;;;;2.78;0.82;;;11.90;94.00;;;;;;5051588;28;20358;-44
2023/12/25 12:22:23;;;;;;;2.20;0.90;;;11.90;93.90;;;;;;5051556;28;20431;-44
2023/12/25 12:24:49;;;;;;;2.90;0.90;;;11.90;93.80;;;;;;5051815;28;20647;-44
2023/12/25 12:27:19;;;;;;;1.83;0.80;;;11.90;93.80;;;;;;5051805;28;20032;-51
2023/12/25 12:29:47;;;;;;;3.45;0.82;;;12.00;93.90;;;;;;5051785;28;20029;-46
2023/12/25 12:32:13;;;;;;;4.60;0.95;;;12.00;93.80;;;;;;5051059;28;20454;-48
2023/12/25 12:34:38;;;;;;;2.42;0.80;;;12.00;93.80;;;;;;5051721;28;20119;-46
2023/12/25 12:37:04;;;;;;;2.50;1.10;;;12.00;93.90;;;;;;5052625;28;20033;-44
2023/12/25 12:39:31;;;;;;;2.40;0.90;;;12.00;93.80;;;;;;5055169;28;20445;-44
2023/12/25 12:41:58;;;;;;;2.10;0.70;;;12.00;93.80;;;;;;5053781;28;20021;-42